Time;durP1;ratioP1;P1;durP2;ratioP2;P2;SDS_P1;SDS_P2;PMS_P1;PMS_P2;Temp;Humidity;BMP_temperature;BMP_pressure;BME280_temperature;BME280_humidity;BME280_pressure;Samples;Min_cycle;Max_cycle;Signal;HPM_P1;HPM_P2
2022/07/25 00:02:21;;;;;;;4.20;2.97;;;24.30;44.50;;;;;;5000000;28;20057;-48
2022/07/25 00:04:47;;;;;;;4.30;2.78;;;24.30;44.50;;;;;;5003373;28;20112;-49
2022/07/25 00:07:13;;;;;;;3.92;2.70;;;24.30;44.50;;;;;;5002369;28;20042;-49
2022/07/25 00:09:38;;;;;;;4.32;3.00;;;24.30;44.60;;;;;;5002237;28;20025;-49
2022/07/25 00:12:04;;;;;;;4.63;2.80;;;24.30;44.60;;;;;;5016375;28;20121;-48
2022/07/25 00:14:30;;;;;;;4.50;2.97;;;24.20;44.00;;;;;;5002461;28;20034;-48
2022/07/25 00:16:55;;;;;;;4.18;2.88;;;24.20;44.60;;;;;;5000695;28;20029;-49
2022/07/25 00:19:21;;;;;;;3.90;2.70;;;24.20;44.40;;;;;;5002212;28;20495;-48
2022/07/25 00:21:47;;;;;;;4.22;3.15;;;24.20;44.70;;;;;;5002512;28;20030;-49
2022/07/25 00:24:12;;;;;;;4.00;2.80;;;24.20;44.70;;;;;;5000846;28;20642;-49
2022/07/25 00:26:38;;;;;;;4.93;3.08;;;24.20;44.40;;;;;;5001712;28;20529;-49
2022/07/25 00:29:04;;;;;;;3.53;2.80;;;24.20;44.70;;;;;;5002595;28;20623;-49
2022/07/25 00:31:30;;;;;;;6.22;2.80;;;24.20;44.80;;;;;;5000846;28;20034;-48
2022/07/25 00:33:55;;;;;;;6.13;3.00;;;24.20;45.40;;;;;;5002536;28;20540;-49
2022/07/25 00:36:21;;;;;;;4.30;2.95;;;24.10;44.60;;;;;;5002378;28;20425;-49
2022/07/25 00:38:47;;;;;;;4.07;2.75;;;24.10;44.50;;;;;;5003453;28;20026;-49
2022/07/25 00:41:12;;;;;;;3.83;2.60;;;24.10;44.60;;;;;;5002294;28;20022;-48
2022/07/25 00:43:45;;;;;;;4.00;2.83;;;24.10;44.50;;;;;;5002686;28;20037;-49
2022/07/25 00:46:15;;;;;;;4.90;3.05;;;24.10;44.90;;;;;;4999989;28;20715;-49
2022/07/25 00:48:41;;;;;;;4.47;3.20;;;24.10;44.50;;;;;;5018261;28;20056;-48
2022/07/25 00:51:08;;;;;;;5.20;3.30;;;24.00;45.40;;;;;;5002513;28;20049;-48
2022/07/25 00:53:35;;;;;;;4.57;2.90;;;24.00;44.40;;;;;;5000663;28;20034;-48
2022/07/25 00:56:01;;;;;;;5.07;2.95;;;24.00;44.60;;;;;;5002161;28;20030;-49
2022/07/25 00:58:26;;;;;;;4.47;2.95;;;24.00;44.50;;;;;;5002409;28;20084;-49
2022/07/25 01:00:52;;;;;;;4.30;2.75;;;24.00;44.70;;;;;;5002036;28;20022;-49
2022/07/25 01:03:18;;;;;;;4.45;3.30;;;24.00;44.60;;;;;;5000393;28;20036;-49
2022/07/25 01:05:43;;;;;;;4.10;2.95;;;24.00;44.60;;;;;;5001845;28;20033;-48
2022/07/25 01:08:09;;;;;;;4.18;2.85;;;23.90;44.80;;;;;;5016601;28;20028;-49
2022/07/25 01:10:36;;;;;;;4.22;2.78;;;23.90;44.60;;;;;;5001844;28;20018;-49
2022/07/25 01:13:02;;;;;;;4.70;2.85;;;23.90;44.50;;;;;;5004119;28;20691;-49
2022/07/25 01:15:28;;;;;;;4.70;2.70;;;23.90;44.40;;;;;;5005819;28;20561;-47
2022/07/25 01:17:54;;;;;;;5.07;3.20;;;23.90;44.30;;;;;;5004521;28;20033;-48
2022/07/25 01:20:22;;;;;;;4.03;2.80;;;23.80;44.30;;;;;;5006130;28;20044;-47
2022/07/25 01:22:48;;;;;;;4.13;2.67;;;23.80;44.50;;;;;;5006214;28;20101;-49
2022/07/25 01:25:15;;;;;;;4.88;2.80;;;23.80;44.70;;;;;;5005303;28;20026;-48
2022/07/25 01:27:41;;;;;;;3.90;2.78;;;23.80;44.70;;;;;;5006331;28;20029;-48
2022/07/25 01:30:10;;;;;;;3.60;2.67;;;23.80;44.60;;;;;;5005960;28;20538;-49
2022/07/25 01:32:36;;;;;;;4.55;2.58;;;23.80;45.00;;;;;;5004555;28;20069;-49
2022/07/25 01:35:03;;;;;;;5.20;2.88;;;23.80;44.90;;;;;;5005740;28;20025;-48
2022/07/25 01:37:28;;;;;;;3.88;2.80;;;23.80;45.30;;;;;;5005437;28;20036;-48
2022/07/25 01:39:54;;;;;;;4.22;2.60;;;23.80;45.30;;;;;;5005649;28;20041;-49
2022/07/25 01:42:20;;;;;;;4.15;3.08;;;23.80;45.40;;;;;;5005324;28;20687;-48
2022/07/25 01:44:45;;;;;;;3.70;2.53;;;23.80;45.20;;;;;;5006176;28;20682;-50
2022/07/25 01:47:11;;;;;;;5.28;2.80;;;23.80;45.30;;;;;;5003594;28;20022;-49
2022/07/25 01:49:37;;;;;;;4.55;3.30;;;23.80;45.30;;;;;;5004179;28;20095;-49
2022/07/25 01:52:02;;;;;;;3.70;2.70;;;23.80;45.00;;;;;;5004903;28;20029;-47
2022/07/25 01:54:28;;;;;;;3.83;2.92;;;23.80;45.00;;;;;;5005368;28;20390;-49
2022/07/25 01:56:54;;;;;;;4.47;3.13;;;23.80;44.90;;;;;;5006080;28;20022;-49
2022/07/25 01:59:20;;;;;;;4.00;3.00;;;23.80;45.10;;;;;;5005676;28;20033;-50
2022/07/25 02:01:45;;;;;;;4.47;3.00;;;23.70;45.20;;;;;;5005727;28;20037;-48
2022/07/25 02:04:11;;;;;;;4.43;3.15;;;23.70;45.30;;;;;;5005745;28;20100;-48
2022/07/25 02:06:40;;;;;;;4.43;3.05;;;23.70;45.40;;;;;;5005128;28;20026;-48
2022/07/25 02:09:07;;;;;;;4.25;3.13;;;23.70;45.60;;;;;;5018341;28;20029;-49
2022/07/25 02:11:33;;;;;;;3.97;3.05;;;23.70;45.40;;;;;;5025997;28;20029;-49
2022/07/25 02:13:59;;;;;;;4.10;3.00;;;23.70;45.80;;;;;;5026002;28;20486;-49
2022/07/25 02:16:25;;;;;;;4.80;3.22;;;23.70;45.50;;;;;;5020086;28;20073;-49
2022/07/25 02:18:51;;;;;;;3.72;2.92;;;23.70;45.70;;;;;;5005944;28;20521;-49
2022/07/25 02:21:16;;;;;;;5.18;3.35;;;23.70;45.90;;;;;;5004884;28;20034;-48
2022/07/25 02:23:43;;;;;;;4.60;3.47;;;23.70;46.00;;;;;;5005798;28;20041;-48
2022/07/25 02:26:10;;;;;;;4.95;3.50;;;23.70;45.90;;;;;;5004922;28;20613;-49
2022/07/25 02:28:35;;;;;;;5.07;3.20;;;23.70;45.90;;;;;;5005884;28;20034;-49
2022/07/25 02:31:01;;;;;;;4.53;3.40;;;23.70;46.00;;;;;;5005489;28;20025;-48
2022/07/25 02:33:27;;;;;;;5.05;3.05;;;23.70;46.00;;;;;;5005173;28;20037;-51
2022/07/25 02:35:53;;;;;;;4.80;3.47;;;23.70;46.00;;;;;;5004870;28;20101;-49
2022/07/25 02:38:18;;;;;;;3.92;2.70;;;23.70;46.10;;;;;;5005260;28;20109;-49
2022/07/25 02:40:49;;;;;;;4.85;3.65;;;23.70;46.00;;;;;;5005927;28;20041;-49
2022/07/25 02:43:15;;;;;;;5.22;3.67;;;23.70;46.00;;;;;;5005477;28;20717;-49
2022/07/25 02:45:40;;;;;;;3.83;3.05;;;23.70;46.10;;;;;;5005095;28;20109;-48
2022/07/25 02:48:06;;;;;;;4.05;3.22;;;23.70;46.00;;;;;;5004842;28;20036;-48
2022/07/25 02:50:32;;;;;;;4.60;3.33;;;23.70;46.00;;;;;;5005932;28;20037;-49
2022/07/25 02:52:58;;;;;;;3.75;2.97;;;23.70;46.00;;;;;;5005191;28;20076;-49
2022/07/25 02:55:24;;;;;;;4.10;2.97;;;23.70;46.00;;;;;;5004855;28;20037;-49
2022/07/25 02:57:49;;;;;;;4.82;2.97;;;23.70;46.10;;;;;;5005389;28;20026;-49
2022/07/25 03:00:16;;;;;;;4.85;3.58;;;23.70;46.10;;;;;;5004828;28;20056;-48
2022/07/25 03:02:42;;;;;;;4.70;3.70;;;23.70;46.20;;;;;;5005022;28;20042;-50
2022/07/25 03:05:09;;;;;;;5.82;3.55;;;23.70;45.90;;;;;;5004798;28;20046;-49
2022/07/25 03:07:35;;;;;;;4.32;3.08;;;23.70;46.10;;;;;;5005129;28;20520;-50
2022/07/25 03:10:01;;;;;;;4.75;3.10;;;23.70;46.00;;;;;;5024623;28;20131;-48
2022/07/25 03:12:26;;;;;;;4.40;3.35;;;23.60;46.10;;;;;;5024885;28;20517;-49
2022/07/25 03:14:52;;;;;;;4.40;3.58;;;23.70;46.10;;;;;;5024385;28;20037;-50
2022/07/25 03:17:18;;;;;;;4.32;3.20;;;23.70;46.10;;;;;;5014040;28;20037;-48
2022/07/25 03:19:43;;;;;;;4.65;3.38;;;23.70;46.00;;;;;;5005286;28;20021;-48
2022/07/25 03:22:09;;;;;;;4.47;3.20;;;23.70;46.10;;;;;;5003090;28;20029;-49
2022/07/25 03:24:35;;;;;;;5.63;3.30;;;23.70;46.00;;;;;;5005041;28;20053;-49
2022/07/25 03:27:01;;;;;;;4.75;3.58;;;23.70;46.10;;;;;;5003595;28;20091;-48
2022/07/25 03:29:26;;;;;;;4.45;2.97;;;23.70;46.20;;;;;;5004947;28;20034;-49
2022/07/25 03:31:52;;;;;;;4.45;3.38;;;23.60;46.10;;;;;;5003629;28;20036;-49
2022/07/25 03:34:18;;;;;;;5.40;3.58;;;23.70;46.20;;;;;;5004164;28;20030;-48
2022/07/25 03:36:43;;;;;;;4.53;3.55;;;23.70;46.30;;;;;;5004207;28;20021;-49
2022/07/25 03:39:09;;;;;;;5.28;3.97;;;23.60;46.30;;;;;;5007744;28;20061;-48
2022/07/25 03:41:35;;;;;;;4.43;3.50;;;23.60;46.20;;;;;;5004364;28;20026;-49
2022/07/25 03:44:00;;;;;;;4.72;3.55;;;23.60;46.20;;;;;;5004072;28;20076;-48
2022/07/25 03:46:26;;;;;;;6.43;3.92;;;23.60;46.20;;;;;;5003734;28;20034;-48
2022/07/25 03:48:52;;;;;;;6.07;3.40;;;23.60;46.00;;;;;;5003821;28;20037;-48
2022/07/25 03:51:17;;;;;;;4.90;3.47;;;23.60;46.20;;;;;;5004358;28;20123;-49
2022/07/25 03:54:01;;;;;;;4.55;3.20;;;23.60;46.20;;;;;;5003839;28;20371;-48
2022/07/25 03:56:28;;;;;;;4.63;3.42;;;23.60;46.20;;;;;;5004162;28;20593;-48
2022/07/25 03:58:54;;;;;;;5.90;3.63;;;23.60;46.10;;;;;;5004193;28;20037;-49
2022/07/25 04:01:20;;;;;;;4.70;3.50;;;23.60;46.20;;;;;;5003659;28;20034;-49
2022/07/25 04:03:46;;;;;;;5.70;3.58;;;23.60;46.10;;;;;;5004000;28;20109;-49
2022/07/25 04:06:12;;;;;;;7.45;3.90;;;23.60;46.00;;;;;;5003510;28;20026;-48
2022/07/25 04:08:37;;;;;;;5.10;3.42;;;23.50;46.00;;;;;;5012605;28;20107;-48
2022/07/25 04:11:03;;;;;;;4.78;3.38;;;23.50;45.90;;;;;;5023312;28;20033;-48
2022/07/25 04:13:29;;;;;;;4.80;3.72;;;23.50;45.70;;;;;;5023610;28;20048;-49
2022/07/25 04:15:55;;;;;;;6.63;4.13;;;23.50;45.60;;;;;;5022823;28;20030;-49
2022/07/25 04:18:20;;;;;;;4.13;3.30;;;23.50;45.80;;;;;;5002943;28;20053;-49
2022/07/25 04:20:46;;;;;;;4.53;3.50;;;23.50;46.30;;;;;;5002656;28;20112;-48
2022/07/25 04:23:12;;;;;;;5.38;3.53;;;23.60;46.40;;;;;;5017783;28;20018;-49
2022/07/25 04:25:37;;;;;;;5.13;3.70;;;23.60;46.50;;;;;;5002192;28;20026;-48
2022/07/25 04:28:03;;;;;;;4.97;3.20;;;23.70;46.40;;;;;;4998041;28;20081;-48
2022/07/25 04:30:29;;;;;;;5.75;3.28;;;23.70;46.40;;;;;;5002576;28;20021;-49
2022/07/25 04:32:55;;;;;;;5.00;3.83;;;23.80;46.40;;;;;;5000343;28;20738;-48
2022/07/25 04:35:21;;;;;;;5.38;3.70;;;23.90;47.00;;;;;;5002549;28;20038;-48
2022/07/25 04:37:47;;;;;;;4.90;3.90;;;23.90;46.90;;;;;;5002905;28;20025;-47
2022/07/25 04:40:12;;;;;;;5.93;3.78;;;24.00;47.10;;;;;;5002489;28;20799;-48
2022/07/25 04:42:38;;;;;;;5.95;3.70;;;24.00;47.00;;;;;;4992831;28;20038;-48
2022/07/25 04:45:04;;;;;;;5.38;4.00;;;24.10;47.80;;;;;;5000726;28;20026;-49
2022/07/25 04:47:30;;;;;;;6.00;3.70;;;24.20;48.20;;;;;;4999493;28;20042;-48
2022/07/25 04:49:56;;;;;;;5.63;3.28;;;24.20;47.10;;;;;;5001926;28;20037;-48
2022/07/25 04:52:21;;;;;;;7.32;4.20;;;24.20;46.80;;;;;;5001759;28;20018;-49
2022/07/25 04:54:47;;;;;;;5.05;3.63;;;24.30;46.60;;;;;;5002071;28;20034;-48
2022/07/25 04:57:13;;;;;;;5.80;3.55;;;24.30;46.40;;;;;;5001993;28;20028;-48
2022/07/25 04:59:38;;;;;;;5.22;3.50;;;24.40;46.30;;;;;;5000026;28;20030;-48
2022/07/25 05:02:04;;;;;;;5.43;3.15;;;24.40;46.10;;;;;;4996163;28;20026;-49
2022/07/25 05:04:29;;;;;;;4.70;3.50;;;24.40;46.10;;;;;;5001520;28;20025;-48
2022/07/25 05:06:55;;;;;;;5.38;3.42;;;24.50;46.00;;;;;;4999832;28;20045;-48
2022/07/25 05:09:21;;;;;;;5.30;3.72;;;24.50;46.50;;;;;;5003457;28;20033;-48
2022/07/25 05:11:47;;;;;;;4.65;3.30;;;24.50;46.00;;;;;;5002027;28;20022;-48
2022/07/25 05:14:12;;;;;;;5.28;3.88;;;24.60;46.20;;;;;;5017460;28;20706;-48
2022/07/25 05:16:38;;;;;;;6.03;3.70;;;24.60;46.60;;;;;;5014961;28;20029;-47
2022/07/25 05:19:04;;;;;;;7.38;3.95;;;24.70;46.80;;;;;;4994513;28;20029;-48
2022/07/25 05:21:31;;;;;;;7.13;4.28;;;24.80;47.00;;;;;;5002691;28;20026;-48
2022/07/25 05:23:56;;;;;;;7.45;4.28;;;24.80;47.10;;;;;;4998698;28;20390;-47
2022/07/25 05:26:22;;;;;;;6.35;3.95;;;24.90;46.90;;;;;;5016313;28;20034;-48
2022/07/25 05:28:47;;;;;;;8.30;4.50;;;25.00;46.60;;;;;;5001342;28;20026;-49
2022/07/25 05:31:13;;;;;;;6.32;3.42;;;25.10;46.30;;;;;;4995531;28;20458;-48
2022/07/25 05:33:39;;;;;;;6.53;3.72;;;25.10;46.10;;;;;;4997583;28;20034;-50
2022/07/25 05:36:05;;;;;;;6.88;3.60;;;25.20;46.30;;;;;;4991968;28;20037;-50
2022/07/25 05:38:30;;;;;;;6.10;3.95;;;25.20;45.80;;;;;;5001463;28;20483;-48
2022/07/25 05:40:56;;;;;;;5.15;3.28;;;25.30;45.70;;;;;;5001992;28;20092;-49
2022/07/25 05:43:22;;;;;;;5.13;3.50;;;25.40;45.60;;;;;;5002207;28;20489;-48
2022/07/25 05:45:47;;;;;;;5.55;3.88;;;25.40;45.80;;;;;;5001670;28;20554;-48
2022/07/25 05:48:14;;;;;;;5.00;3.53;;;25.40;45.70;;;;;;5000639;28;20022;-49
2022/07/25 05:50:40;;;;;;;8.30;4.35;;;25.40;46.20;;;;;;5001880;28;20524;-47
2022/07/25 05:53:06;;;;;;;4.78;3.53;;;25.40;46.10;;;;;;5001838;28;20138;-48
2022/07/25 05:55:32;;;;;;;5.60;3.60;;;25.50;46.00;;;;;;5000454;28;20026;-49
2022/07/25 05:57:57;;;;;;;6.07;3.95;;;25.50;46.00;;;;;;5003634;28;20097;-48
2022/07/25 06:00:23;;;;;;;5.18;3.65;;;25.50;45.90;;;;;;5005317;28;20742;-48
2022/07/25 06:02:49;;;;;;;6.32;4.10;;;25.50;46.10;;;;;;5005839;28;20034;-47
2022/07/25 06:05:15;;;;;;;7.70;3.63;;;25.50;46.00;;;;;;5005968;28;20136;-48
2022/07/25 06:07:41;;;;;;;4.70;3.20;;;25.60;46.10;;;;;;5007262;28;20026;-48
2022/07/25 06:10:07;;;;;;;4.43;3.45;;;25.60;46.60;;;;;;5026057;28;20021;-48
2022/07/25 06:12:33;;;;;;;4.57;3.03;;;25.60;46.40;;;;;;5025132;28;20026;-47
2022/07/25 06:14:59;;;;;;;5.70;3.40;;;25.60;46.60;;;;;;5024571;28;20551;-48
2022/07/25 06:17:25;;;;;;;4.70;3.60;;;25.70;46.50;;;;;;5003111;28;20109;-47
2022/07/25 06:19:51;;;;;;;5.13;3.40;;;25.70;46.00;;;;;;5004716;28;20033;-48
2022/07/25 06:22:18;;;;;;;4.25;3.08;;;25.80;45.70;;;;;;5005000;28;20026;-48
2022/07/25 06:24:44;;;;;;;9.30;3.83;;;25.80;45.40;;;;;;5002905;28;20021;-48
2022/07/25 06:27:10;;;;;;;5.32;3.58;;;25.80;45.30;;;;;;5004720;28;20109;-47
2022/07/25 06:29:37;;;;;;;5.07;3.53;;;25.80;45.20;;;;;;5003990;28;20093;-48
2022/07/25 06:32:03;;;;;;;5.65;3.35;;;25.80;45.10;;;;;;5003004;28;20093;-48
2022/07/25 06:34:29;;;;;;;5.63;3.67;;;25.80;44.90;;;;;;5003800;28;20133;-48
2022/07/25 06:36:56;;;;;;;6.10;3.75;;;25.90;45.00;;;;;;5005361;28;20096;-46
2022/07/25 06:39:22;;;;;;;6.47;3.78;;;25.90;45.90;;;;;;5004940;28;20038;-47
2022/07/25 06:41:48;;;;;;;4.75;3.33;;;25.90;46.00;;;;;;5004226;28;20029;-47
2022/07/25 06:44:14;;;;;;;4.65;3.40;;;25.90;45.70;;;;;;5005019;28;20052;-48
2022/07/25 06:46:40;;;;;;;4.45;3.35;;;26.00;45.70;;;;;;5004229;28;20030;-49
2022/07/25 06:49:05;;;;;;;4.65;3.58;;;26.00;45.50;;;;;;5005160;28;20065;-48
2022/07/25 06:51:32;;;;;;;5.13;3.58;;;26.00;45.30;;;;;;5005340;28;20049;-48
2022/07/25 06:53:59;;;;;;;4.88;3.20;;;26.00;45.10;;;;;;5005510;28;20108;-47
2022/07/25 06:56:24;;;;;;;4.45;2.92;;;26.00;45.10;;;;;;5003908;28;20716;-48
2022/07/25 06:58:52;;;;;;;4.63;3.33;;;26.00;45.10;;;;;;5005328;28;20034;-48
2022/07/25 07:01:17;;;;;;;6.30;3.13;;;26.00;45.10;;;;;;5005120;28;20026;-48
2022/07/25 07:03:43;;;;;;;4.90;3.30;;;26.00;45.10;;;;;;5004567;28;20650;-48
2022/07/25 07:06:09;;;;;;;6.07;3.67;;;26.10;45.10;;;;;;5005175;28;20032;-48
2022/07/25 07:08:35;;;;;;;4.57;3.20;;;26.00;45.10;;;;;;5012809;28;20038;-48
2022/07/25 07:11:01;;;;;;;4.35;2.97;;;26.10;45.10;;;;;;5024452;28;20033;-49
2022/07/25 07:13:27;;;;;;;4.22;3.22;;;26.10;45.10;;;;;;5024207;28;20037;-51
2022/07/25 07:15:53;;;;;;;5.53;3.40;;;26.10;45.20;;;;;;5024627;28;20061;-48
2022/07/25 07:18:20;;;;;;;3.92;2.63;;;26.10;45.20;;;;;;5009558;28;20057;-48
2022/07/25 07:20:46;;;;;;;4.30;2.80;;;26.10;45.20;;;;;;5004824;28;20519;-47
2022/07/25 07:23:12;;;;;;;5.40;3.15;;;26.10;45.10;;;;;;5004870;28;20411;-48
2022/07/25 07:25:38;;;;;;;4.30;2.95;;;26.10;45.10;;;;;;5004085;28;20113;-48
2022/07/25 07:28:04;;;;;;;4.55;3.03;;;26.10;45.20;;;;;;5004711;28;20125;-49
2022/07/25 07:30:31;;;;;;;3.97;2.63;;;26.20;45.20;;;;;;5004149;28;20084;-47
2022/07/25 07:32:57;;;;;;;4.70;2.97;;;26.20;45.30;;;;;;5004671;28;20557;-47
2022/07/25 07:35:24;;;;;;;3.90;2.45;;;26.20;45.10;;;;;;5004284;28;20034;-49
2022/07/25 07:37:53;;;;;;;5.47;2.80;;;26.20;45.20;;;;;;5007007;28;20018;-49
2022/07/25 07:40:19;;;;;;;4.22;2.60;;;26.20;45.20;;;;;;5012077;28;20463;-47
2022/07/25 07:42:47;;;;;;;3.72;2.67;;;26.20;45.10;;;;;;5004520;28;20113;-47
2022/07/25 07:45:24;;;;;;;3.67;2.70;;;26.20;45.20;;;;;;5003036;28;20033;-48
2022/07/25 07:47:51;;;;;;;4.05;2.70;;;26.30;45.20;;;;;;5004129;28;20029;-48
2022/07/25 07:50:22;;;;;;;4.47;2.97;;;26.30;45.10;;;;;;5004417;28;20553;-48
2022/07/25 07:52:49;;;;;;;4.15;2.50;;;26.30;45.10;;;;;;5035649;28;20033;-48
2022/07/25 07:57:59;;;;;;;4.35;2.80;;;26.30;45.20;;;;;;5003936;28;20061;-48
2022/07/25 08:00:27;;;;;;;4.13;2.92;;;26.30;45.10;;;;;;5004480;28;20447;-47
2022/07/25 08:02:54;;;;;;;4.00;2.60;;;26.30;45.30;;;;;;5003960;28;20364;-47
2022/07/25 08:05:41;;;;;;;3.88;2.75;;;26.30;45.20;;;;;;5003494;28;20538;-48
2022/07/25 08:08:09;;;;;;;3.83;2.20;;;26.40;45.30;;;;;;5007795;28;20048;-49
2022/07/25 08:10:37;;;;;;;4.45;2.58;;;26.30;45.20;;;;;;5022812;28;20026;-47
2022/07/25 08:13:13;;;;;;;3.15;2.10;;;26.30;45.30;;;;;;5023895;28;20482;-48
2022/07/25 08:15:39;;;;;;;3.90;2.45;;;26.40;45.20;;;;;;5021680;28;20034;-48
2022/07/25 08:18:04;;;;;;;4.63;3.20;;;26.40;45.20;;;;;;5011686;28;20056;-48
2022/07/25 08:20:30;;;;;;;4.20;2.72;;;26.40;45.20;;;;;;5003325;28;20022;-48
2022/07/25 08:22:56;;;;;;;3.25;2.33;;;26.40;45.30;;;;;;5004070;28;20022;-48
2022/07/25 08:25:22;;;;;;;4.00;2.25;;;26.40;45.10;;;;;;5003073;28;20033;-48
2022/07/25 08:27:48;;;;;;;3.92;2.47;;;26.40;45.20;;;;;;5003988;28;20036;-48
2022/07/25 08:30:15;;;;;;;3.58;2.40;;;26.40;45.10;;;;;;5003449;28;20030;-48
2022/07/25 08:32:56;;;;;;;3.97;2.47;;;26.40;45.20;;;;;;5003592;28;20101;-49
2022/07/25 08:35:23;;;;;;;3.72;2.60;;;26.40;45.20;;;;;;5002967;28;20034;-48
2022/07/25 08:37:50;;;;;;;3.97;2.67;;;26.40;45.20;;;;;;5005988;28;20104;-48
2022/07/25 08:40:18;;;;;;;4.10;2.42;;;26.40;46.00;;;;;;5012601;28;20038;-49
2022/07/25 08:42:44;;;;;;;3.83;2.33;;;26.40;45.30;;;;;;5003559;28;20030;-47
2022/07/25 08:45:12;;;;;;;3.50;2.22;;;26.40;45.40;;;;;;5003502;28;20025;-49
2022/07/25 08:47:39;;;;;;;3.60;2.47;;;26.40;45.30;;;;;;5003325;28;20056;-48
2022/07/25 08:50:08;;;;;;;3.50;2.28;;;26.40;45.30;;;;;;5003658;28;20442;-47
2022/07/25 08:52:35;;;;;;;3.80;2.45;;;26.40;45.30;;;;;;5034849;28;20033;-48
2022/07/25 08:55:14;;;;;;;3.08;2.10;;;26.50;45.30;;;;;;5002892;28;20026;-48
2022/07/25 08:57:42;;;;;;;3.70;2.35;;;26.50;45.20;;;;;;5003693;28;20685;-48
2022/07/25 09:00:11;;;;;;;3.50;2.22;;;26.50;45.20;;;;;;5003067;28;20137;-48
2022/07/25 09:02:37;;;;;;;3.53;2.50;;;26.50;45.30;;;;;;5002846;28;20038;-48
2022/07/25 09:05:03;;;;;;;3.58;2.30;;;26.50;45.20;;;;;;5003216;28;20113;-47
2022/07/25 09:07:33;;;;;;;3.63;2.30;;;26.50;45.90;;;;;;5003252;28;20026;-48
2022/07/25 09:10:13;;;;;;;3.97;2.40;;;26.50;45.20;;;;;;4983692;28;20035;-48
2022/07/25 09:12:39;;;;;;;3.67;2.00;;;26.50;45.30;;;;;;4983495;28;20054;-48
2022/07/25 09:15:07;;;;;;;3.28;2.38;;;26.50;45.30;;;;;;4983307;28;20495;-48
2022/07/25 09:17:35;;;;;;;3.50;2.20;;;26.50;45.20;;;;;;4989956;28;20191;-48
2022/07/25 09:20:01;;;;;;;3.60;2.65;;;26.50;45.20;;;;;;5003034;28;20073;-49
2022/07/25 09:22:26;;;;;;;3.17;1.90;;;26.50;45.20;;;;;;5002892;28;20056;-47
2022/07/25 09:24:52;;;;;;;3.28;2.13;;;26.50;45.30;;;;;;5002064;28;20026;-48
2022/07/25 09:27:18;;;;;;;3.92;2.53;;;26.50;45.30;;;;;;5002044;28;20037;-47
2022/07/25 09:29:44;;;;;;;3.03;2.08;;;26.50;45.20;;;;;;5002018;28;20030;-47
2022/07/25 09:32:28;;;;;;;4.60;2.67;;;26.50;45.30;;;;;;5002515;28;20030;-48
2022/07/25 09:34:53;;;;;;;4.05;2.53;;;26.50;45.20;;;;;;5005466;28;20041;-47
2022/07/25 09:37:25;;;;;;;3.60;2.30;;;26.60;45.30;;;;;;5005930;28;20026;-47
2022/07/25 09:39:51;;;;;;;3.40;2.00;;;26.50;45.30;;;;;;5025128;28;20490;-47
2022/07/25 09:42:37;;;;;;;2.95;2.03;;;26.60;45.20;;;;;;5025917;28;20601;-48
2022/07/25 09:45:13;;;;;;;3.38;2.10;;;26.60;45.30;;;;;;5025842;28;20116;-48
2022/07/25 09:47:56;;;;;;;3.50;2.08;;;26.60;45.30;;;;;;5018750;28;20148;-48
2022/07/25 09:50:23;;;;;;;3.40;2.20;;;26.60;45.30;;;;;;5006371;28;20602;-48
2022/07/25 09:52:55;;;;;;;3.67;2.33;;;26.60;45.40;;;;;;5005524;28;20038;-48
2022/07/25 09:55:21;;;;;;;;;;;26.60;45.30;;;;;;5006526;28;20025;-48
2022/07/25 09:57:48;;;;;;;3.15;1.90;;;26.60;45.30;;;;;;5006173;28;20301;-47
2022/07/25 10:00:22;;;;;;;2.75;1.80;;;26.60;45.30;;;;;;5006204;28;20026;-48
2022/07/25 10:02:53;;;;;;;3.33;2.03;;;26.60;45.30;;;;;;5005460;28;20038;-49
2022/07/25 10:05:55;;;;;;;2.85;1.85;;;26.60;45.30;;;;;;5004967;28;20042;-48
2022/07/25 10:08:22;;;;;;;3.55;2.47;;;26.60;45.30;;;;;;5012737;28;20105;-47
2022/07/25 10:10:48;;;;;;;3.30;2.08;;;26.60;45.30;;;;;;5026214;28;20029;-47
2022/07/25 10:13:16;;;;;;;3.72;2.47;;;26.60;45.30;;;;;;5025876;28;20474;-48
2022/07/25 10:15:48;;;;;;;3.60;2.40;;;26.60;45.30;;;;;;5025901;28;20029;-48
2022/07/25 10:18:15;;;;;;;3.40;1.90;;;26.60;45.30;;;;;;5014478;28;20061;-48
2022/07/25 10:20:43;;;;;;;3.08;2.05;;;26.60;45.30;;;;;;5006189;28;20057;-52
2022/07/25 10:23:20;;;;;;;3.45;2.17;;;26.60;45.30;;;;;;5006116;28;20046;-47
2022/07/25 10:25:46;;;;;;;3.83;2.33;;;26.60;45.40;;;;;;5005951;28;20040;-47
2022/07/25 10:28:17;;;;;;;3.30;2.05;;;26.70;45.40;;;;;;5005519;28;20022;-48
2022/07/25 10:30:43;;;;;;;3.72;2.20;;;26.60;45.40;;;;;;5005845;28;20299;-47
2022/07/25 10:33:14;;;;;;;3.40;2.17;;;26.60;45.40;;;;;;5004731;28;20036;-47
2022/07/25 10:35:40;;;;;;;3.40;1.90;;;26.60;45.50;;;;;;5004679;28;20084;-47
2022/07/25 10:38:07;;;;;;;3.58;2.08;;;26.70;45.40;;;;;;5010220;28;20025;-47
2022/07/25 10:40:42;;;;;;;3.17;2.00;;;26.70;45.40;;;;;;5024870;28;20037;-47
2022/07/25 10:43:12;;;;;;;3.47;2.25;;;26.70;45.50;;;;;;5025348;28;20022;-47
2022/07/25 10:45:51;;;;;;;4.07;1.90;;;26.70;45.40;;;;;;5023483;28;20547;-47
2022/07/25 10:48:31;;;;;;;3.33;2.00;;;26.70;45.50;;;;;;5014146;28;20685;-48
2022/07/25 10:51:02;;;;;;;3.05;1.92;;;26.70;45.50;;;;;;5004598;28;20088;-48
2022/07/25 10:53:39;;;;;;;4.30;2.13;;;26.80;45.50;;;;;;5005067;28;20061;-47
2022/07/25 10:56:09;;;;;;;3.20;2.10;;;26.80;45.50;;;;;;5005102;28;20543;-47
2022/07/25 10:58:45;;;;;;;3.00;1.90;;;26.80;45.50;;;;;;5003883;28;20022;-48
2022/07/25 11:01:13;;;;;;;2.97;1.88;;;26.80;45.50;;;;;;5003886;28;20104;-47
2022/07/25 11:03:40;;;;;;;2.88;1.90;;;26.80;45.40;;;;;;5004795;28;20026;-48
2022/07/25 11:06:06;;;;;;;3.33;2.13;;;26.80;45.50;;;;;;5005216;28;20033;-49
2022/07/25 11:08:34;;;;;;;3.13;2.00;;;26.80;45.40;;;;;;5012303;28;20037;-47
2022/07/25 11:11:01;;;;;;;3.33;1.83;;;26.80;45.40;;;;;;5024718;28;20165;-47
2022/07/25 11:13:26;;;;;;;3.58;2.10;;;26.80;45.40;;;;;;5015026;28;20025;-48
2022/07/25 11:15:58;;;;;;;3.10;1.92;;;26.80;45.40;;;;;;5004695;28;20041;-48
2022/07/25 11:18:39;;;;;;;3.47;2.03;;;26.80;45.40;;;;;;5004588;28;20530;-48
2022/07/25 11:21:07;;;;;;;3.85;1.85;;;26.80;45.40;;;;;;5004279;28;20034;-47
2022/07/25 11:23:34;;;;;;;2.75;1.75;;;26.80;45.40;;;;;;5003678;28;20041;-48
2022/07/25 11:26:18;;;;;;;3.30;1.98;;;26.80;45.40;;;;;;5004493;28;20033;-49
2022/07/25 11:28:49;;;;;;;3.30;2.28;;;26.90;45.50;;;;;;5004660;28;20033;-48
2022/07/25 11:31:17;;;;;;;2.60;1.73;;;26.80;45.40;;;;;;5004101;28;20034;-48
2022/07/25 11:33:46;;;;;;;3.65;2.00;;;26.90;45.50;;;;;;5004636;28;20792;-47
2022/07/25 11:36:13;;;;;;;3.58;2.10;;;26.90;45.50;;;;;;5002937;28;20605;-48
2022/07/25 11:38:39;;;;;;;2.83;1.70;;;26.90;45.40;;;;;;5013348;28;20095;-48
2022/07/25 11:41:06;;;;;;;2.83;2.00;;;26.90;45.50;;;;;;5022713;28;20101;-48
2022/07/25 11:43:32;;;;;;;3.08;2.08;;;26.90;45.50;;;;;;5013722;28;20030;-48
2022/07/25 11:46:05;;;;;;;2.88;1.77;;;26.90;45.50;;;;;;5003976;28;20030;-48
2022/07/25 11:48:40;;;;;;;2.90;1.85;;;26.90;45.50;;;;;;5003071;28;20033;-48
2022/07/25 11:51:17;;;;;;;2.80;1.88;;;26.90;45.50;;;;;;5035694;28;20113;-48
2022/07/25 11:53:48;;;;;;;3.25;1.70;;;26.90;45.50;;;;;;5004285;28;20720;-48
2022/07/25 11:56:19;;;;;;;3.05;1.90;;;27.00;46.10;;;;;;5002908;28;20113;-47
2022/07/25 11:58:59;;;;;;;3.55;1.92;;;27.00;46.10;;;;;;5004202;28;20018;-48
2022/07/25 12:01:32;;;;;;;3.28;2.05;;;27.00;46.10;;;;;;5003682;28;20096;-48
2022/07/25 12:04:08;;;;;;;2.75;1.85;;;27.00;46.10;;;;;;5004081;28;20030;-48
2022/07/25 12:06:34;;;;;;;2.90;1.88;;;27.10;46.20;;;;;;5002510;28;20121;-48
2022/07/25 12:09:19;;;;;;;3.05;1.90;;;27.10;46.10;;;;;;5002857;28;20117;-48
2022/07/25 12:11:46;;;;;;;3.20;2.03;;;27.10;46.20;;;;;;5003535;28;20555;-48
2022/07/25 12:14:12;;;;;;;2.85;1.70;;;27.10;46.20;;;;;;5003124;28;20393;-48
2022/07/25 12:16:38;;;;;;;4.68;2.10;;;27.10;46.10;;;;;;5003049;28;20136;-46
2022/07/25 12:19:16;;;;;;;2.78;1.88;;;27.10;46.10;;;;;;5003074;28;20038;-48
2022/07/25 12:21:41;;;;;;;3.10;1.90;;;27.10;46.10;;;;;;4984182;28;20025;-49
2022/07/25 12:24:07;;;;;;;3.00;1.70;;;27.20;46.10;;;;;;5001815;28;20030;-48
2022/07/25 12:26:33;;;;;;;3.08;2.03;;;27.20;46.00;;;;;;5001953;28;20117;-48
2022/07/25 12:28:59;;;;;;;3.15;1.85;;;27.10;46.00;;;;;;5002333;28;20061;-47
2022/07/25 12:31:27;;;;;;;3.00;1.95;;;27.20;46.00;;;;;;5002570;28;20675;-47
2022/07/25 12:33:53;;;;;;;3.90;2.35;;;27.20;46.00;;;;;;5002414;28;20033;-47
2022/07/25 12:36:19;;;;;;;3.40;2.20;;;27.20;45.90;;;;;;5002864;28;20037;-47
2022/07/25 12:38:45;;;;;;;3.20;2.15;;;27.30;45.80;;;;;;5012063;28;20029;-48
2022/07/25 12:41:10;;;;;;;2.80;1.70;;;27.30;45.80;;;;;;5009309;28;20030;-48
2022/07/25 12:43:36;;;;;;;3.58;2.17;;;27.30;45.80;;;;;;5003239;28;20112;-48
2022/07/25 12:46:03;;;;;;;3.70;2.30;;;27.40;45.80;;;;;;5002924;28;20116;-48
2022/07/25 12:48:29;;;;;;;3.25;2.00;;;27.30;45.70;;;;;;5003405;28;20704;-47
2022/07/25 12:50:55;;;;;;;2.80;1.90;;;27.40;45.70;;;;;;5003178;28;20066;-48
2022/07/25 12:53:21;;;;;;;3.05;1.80;;;27.40;45.70;;;;;;5002818;28;20505;-48